createdAt,value
2019-01-12T05:02:01.936Z,11.53
2019-01-12T05:04:37.174Z,11.80
2019-01-12T05:07:12.732Z,11.83
2019-01-12T05:09:47.546Z,12.63
2019-01-12T05:12:22.976Z,11.93
2019-01-12T05:14:57.931Z,13.17
2019-01-12T06:01:58.953Z,5.57
2019-01-12T06:04:33.889Z,6.07
2019-01-12T06:07:08.854Z,6.37
2019-01-12T06:09:43.980Z,5.50
2019-01-12T06:12:19.034Z,7.47
2019-01-12T06:14:54.322Z,6.07
2019-01-12T07:01:52.067Z,6.60
2019-01-12T07:04:26.750Z,8.23
2019-01-12T07:07:01.954Z,5.70
2019-01-12T07:09:36.934Z,6.13
2019-01-12T07:12:11.823Z,7.03
2019-01-12T07:14:47.134Z,6.30
2019-01-12T08:01:47.337Z,6.00
2019-01-12T08:04:22.562Z,4.77
2019-01-12T08:06:57.782Z,4.30
2019-01-12T08:09:32.959Z,4.07
2019-01-12T08:12:08.132Z,4.70
2019-01-12T08:14:31.870Z,4.77
2019-01-12T09:01:01.455Z,4.23
2019-01-12T09:03:36.646Z,4.40
2019-01-12T09:06:11.619Z,2.70
2019-01-12T10:22:11.910Z,3.80
2019-01-12T10:24:46.967Z,3.80
2019-01-12T12:02:54.355Z,2.67
2019-01-12T12:05:29.504Z,2.90
2019-01-12T12:08:04.837Z,3.17
2019-01-12T12:10:39.988Z,3.20
2019-01-12T12:13:14.962Z,3.17
2019-01-12T13:01:07.475Z,2.73
2019-01-12T13:03:42.946Z,3.07
2019-01-12T13:06:05.966Z,2.57
2019-01-12T13:08:36.274Z,3.80
2019-01-12T13:10:58.939Z,3.00
2019-01-12T13:13:22.514Z,3.90
2019-01-12T14:02:18.907Z,3.60
2019-01-12T14:04:41.351Z,3.30
2019-01-12T14:07:03.786Z,5.43
2019-01-12T14:11:54.126Z,3.30
2019-01-12T14:14:16.574Z,3.20
2019-01-12T15:01:01.004Z,4.10
2019-01-12T15:03:23.534Z,3.60
2019-01-12T15:05:46.537Z,3.97
2019-01-12T15:08:09.166Z,3.50
2019-01-12T15:10:31.630Z,3.40
2019-01-12T15:12:54.095Z,3.00
2019-01-12T16:00:15.339Z,3.00
2019-01-12T16:02:40.006Z,2.13
2019-01-12T16:05:03.422Z,2.80
2019-01-12T16:07:26.070Z,2.63
2019-01-12T16:09:48.499Z,2.00
2019-01-12T16:12:10.945Z,2.20
2019-01-12T16:14:33.582Z,2.23
2019-01-12T17:00:26.679Z,3.97
2019-01-12T17:02:49.134Z,3.47
2019-01-12T17:05:11.574Z,5.47
2019-01-12T17:07:34.094Z,9.07
2019-01-12T17:09:56.603Z,14.63
2019-01-12T17:12:19.038Z,10.03
2019-01-12T17:14:41.578Z,8.23
2019-01-12T18:01:46.143Z,5.40
2019-01-12T18:04:08.754Z,3.53
2019-01-12T18:06:50.654Z,4.40
2019-01-12T18:09:13.206Z,4.27
2019-01-12T18:11:35.628Z,4.00
2019-01-12T18:13:58.055Z,3.93
2019-01-12T19:01:41.243Z,5.17
2019-01-12T19:04:03.686Z,5.43
2019-01-12T19:06:26.222Z,5.57
2019-01-12T19:08:48.698Z,5.20
2019-01-12T19:11:11.186Z,5.33
2019-01-12T19:13:34.739Z,5.00
2019-01-12T20:00:26.102Z,4.67
2019-01-12T20:02:48.571Z,4.73
2019-01-12T20:05:11.002Z,4.23
2019-01-12T20:07:33.541Z,4.83
2019-01-12T20:09:55.994Z,4.70
2019-01-12T20:12:18.426Z,4.33
2019-01-12T20:14:40.867Z,4.50
2019-01-12T21:00:14.387Z,3.90
2019-01-12T21:03:15.761Z,3.20
2019-01-12T21:06:04.034Z,3.00
2019-01-12T21:08:51.830Z,2.93
2019-01-12T21:11:49.623Z,2.70
2019-01-12T21:14:37.581Z,2.10
